Time;durP1;ratioP1;P1;durP2;ratioP2;P2;SDS_P1;SDS_P2;PMS_P1;PMS_P2;Temp;Humidity;BMP_temperature;BMP_pressure;BME280_temperature;BME280_humidity;BME280_pressure;Samples;Min_cycle;Max_cycle;Signal;HPM_P1;HPM_P2
2021/06/02 00:01:57;;;;;;;5.70;2.83;;;18.30;60.30;;;;;;5043778;28;20565;-69
2021/06/02 00:04:26;;;;;;;4.13;2.60;;;18.30;60.40;;;;;;5050950;28;20041;-70
2021/06/02 00:07:09;;;;;;;4.45;2.50;;;18.30;60.30;;;;;;5048081;28;20046;-70
2021/06/02 00:09:38;;;;;;;5.10;2.92;;;18.30;60.70;;;;;;5058933;28;20107;-70
2021/06/02 00:12:10;;;;;;;4.75;2.92;;;18.30;60.40;;;;;;5064492;28;20048;-70
2021/06/02 00:14:38;;;;;;;6.28;2.95;;;18.30;60.40;;;;;;5045645;28;20527;-70
2021/06/02 00:17:06;;;;;;;3.92;2.67;;;18.40;60.50;;;;;;5050406;28;20084;-70
2021/06/02 00:19:33;;;;;;;5.07;2.88;;;18.40;60.40;;;;;;5047451;28;20135;-70
2021/06/02 00:22:05;;;;;;;6.15;3.13;;;18.40;60.20;;;;;;5044252;28;20049;-70
2021/06/02 00:24:32;;;;;;;5.78;3.45;;;18.50;60.30;;;;;;5057308;28;20080;-70
2021/06/02 00:27:02;;;;;;;5.57;3.22;;;18.50;60.40;;;;;;5049076;28;20119;-70
2021/06/02 00:29:34;;;;;;;4.65;2.95;;;18.50;60.40;;;;;;5056195;28;20040;-70
2021/06/02 00:32:03;;;;;;;5.57;3.72;;;18.50;60.40;;;;;;5055741;28;20550;-70
2021/06/02 00:34:31;;;;;;;6.95;3.55;;;18.50;60.40;;;;;;5052930;28;20102;-70
2021/06/02 00:36:59;;;;;;;6.07;3.65;;;18.60;60.60;;;;;;5052610;28;20143;-69
2021/06/02 00:39:26;;;;;;;6.38;3.60;;;18.60;61.30;;;;;;5052601;28;20083;-69
2021/06/02 00:41:54;;;;;;;5.47;3.58;;;18.60;60.60;;;;;;5055519;28;20079;-69
2021/06/02 00:44:22;;;;;;;5.80;3.70;;;18.60;60.60;;;;;;5056246;28;20076;-69
2021/06/02 00:46:50;;;;;;;5.78;3.92;;;18.60;60.80;;;;;;5037133;28;20511;-69
2021/06/02 00:49:23;;;;;;;5.93;3.53;;;18.60;60.70;;;;;;5046367;28;20121;-69
2021/06/02 00:51:58;;;;;;;5.70;3.40;;;18.60;61.00;;;;;;5038576;28;20088;-69
2021/06/02 00:54:27;;;;;;;6.32;3.67;;;18.60;60.90;;;;;;5040647;28;20393;-69
2021/06/02 00:56:59;;;;;;;6.30;3.58;;;18.50;60.90;;;;;;5042813;28;20447;-70
2021/06/02 00:59:39;;;;;;;7.68;3.70;;;18.50;61.10;;;;;;5052117;28;22066;-69
2021/06/02 01:02:15;;;;;;;7.20;4.05;;;18.50;61.30;;;;;;5058562;28;20385;-69
2021/06/02 01:04:44;;;;;;;7.10;3.67;;;18.50;61.40;;;;;;5045481;28;20073;-70
2021/06/02 01:07:12;;;;;;;6.68;4.07;;;18.50;61.60;;;;;;5052691;28;20081;-69
2021/06/02 01:09:50;;;;;;;6.22;4.30;;;18.40;61.60;;;;;;5057778;28;20098;-70
2021/06/02 01:12:21;;;;;;;6.22;4.10;;;18.40;61.90;;;;;;5047071;28;20087;-70
2021/06/02 01:14:50;;;;;;;8.40;4.25;;;18.40;62.10;;;;;;5055444;28;20064;-70
2021/06/02 01:17:19;;;;;;;7.28;4.20;;;18.40;62.30;;;;;;5031316;28;20053;-70
2021/06/02 01:19:47;;;;;;;7.32;4.28;;;18.40;62.40;;;;;;5062123;28;20568;-70
2021/06/02 01:22:15;;;;;;;6.90;4.13;;;18.40;62.60;;;;;;5047479;28;20464;-70
2021/06/02 01:24:41;;;;;;;7.13;4.32;;;18.40;62.80;;;;;;5051381;28;20080;-70
2021/06/02 01:27:11;;;;;;;8.10;4.68;;;18.30;62.80;;;;;;5056917;28;20489;-70
2021/06/02 01:29:47;;;;;;;13.05;4.60;;;18.30;63.10;;;;;;5044009;28;20084;-70
2021/06/02 01:32:59;;;;;;;6.22;4.40;;;18.30;63.20;;;;;;5058120;28;20091;-70
2021/06/02 01:35:32;;;;;;;6.40;4.47;;;18.30;63.90;;;;;;4977537;28;20054;-69
2021/06/02 01:38:23;;;;;;;9.10;4.45;;;18.20;63.40;;;;;;4969690;28;20137;-70
2021/06/02 01:41:12;;;;;;;7.03;4.00;;;18.20;63.60;;;;;;5027705;28;20076;-70
2021/06/02 01:44:17;;;;;;;8.90;4.60;;;18.20;64.10;;;;;;5042004;28;20115;-70
2021/06/02 01:47:21;;;;;;;7.60;4.55;;;18.10;64.10;;;;;;5038972;28;20148;-70
2021/06/02 01:49:57;;;;;;;6.30;4.25;;;18.10;64.40;;;;;;5062924;28;20492;-69
2021/06/02 01:53:02;;;;;;;6.85;4.40;;;18.00;64.40;;;;;;5065947;28;20121;-69
2021/06/02 01:55:47;;;;;;;6.82;4.63;;;18.00;64.80;;;;;;5035631;28;20072;-70
2021/06/02 01:58:22;;;;;;;8.93;4.80;;;18.00;64.90;;;;;;5037450;28;20087;-69
2021/06/02 02:01:27;;;;;;;6.93;4.90;;;18.00;65.20;;;;;;5034376;28;20148;-69
2021/06/02 02:04:13;;;;;;;7.60;5.03;;;17.90;65.40;;;;;;5029736;28;20458;-69
2021/06/02 02:07:05;;;;;;;6.95;4.60;;;17.90;65.50;;;;;;5052403;28;20118;-69
2021/06/02 02:10:04;;;;;;;7.65;4.78;;;17.90;65.70;;;;;;5035304;28;20076;-69
2021/06/02 02:12:52;;;;;;;8.13;4.63;;;17.90;65.90;;;;;;5034291;28;20128;-70
2021/06/02 02:15:25;;;;;;;7.70;4.88;;;17.90;65.90;;;;;;5035000;28;20084;-69
2021/06/02 02:18:13;;;;;;;7.43;4.88;;;17.80;66.20;;;;;;5040254;28;20079;-69
2021/06/02 02:21:17;;;;;;;6.60;4.55;;;17.80;66.10;;;;;;5027774;28;20186;-70
2021/06/02 02:24:10;;;;;;;7.97;4.55;;;17.80;66.60;;;;;;5037073;28;20520;-70
2021/06/02 02:26:45;;;;;;;6.30;4.75;;;17.80;66.70;;;;;;5008854;28;20473;-70
2021/06/02 02:29:33;;;;;;;7.90;4.75;;;17.80;66.50;;;;;;5041221;28;20092;-69
2021/06/02 02:32:23;;;;;;;7.78;4.68;;;17.80;66.70;;;;;;5036054;28;20124;-70
2021/06/02 02:35:20;;;;;;;7.82;4.70;;;17.80;67.00;;;;;;5041773;28;20516;-70
2021/06/02 02:37:58;;;;;;;7.47;5.40;;;17.80;67.30;;;;;;5053168;28;20420;-70
2021/06/02 02:40:44;;;;;;;7.60;4.72;;;17.80;67.20;;;;;;5029454;28;20053;-69
2021/06/02 02:43:14;;;;;;;8.57;5.03;;;17.70;67.40;;;;;;5043669;28;20044;-70
2021/06/02 02:45:53;;;;;;;7.65;4.75;;;17.70;67.60;;;;;;5033214;28;20492;-69
2021/06/02 02:48:33;;;;;;;7.10;4.70;;;17.70;68.00;;;;;;5033587;28;20123;-70
2021/06/02 02:51:14;;;;;;;7.95;5.00;;;17.70;68.80;;;;;;5050733;28;20489;-70
2021/06/02 02:53:48;;;;;;;9.73;4.90;;;17.70;68.30;;;;;;5033604;28;20049;-70
2021/06/02 02:56:22;;;;;;;7.03;4.60;;;17.70;68.30;;;;;;5034529;28;20505;-70
2021/06/02 02:59:07;;;;;;;6.70;4.65;;;17.70;68.50;;;;;;5054541;28;20223;-70
2021/06/02 03:01:58;;;;;;;8.43;4.80;;;17.70;68.80;;;;;;5049200;28;20083;-70
2021/06/02 03:04:26;;;;;;;7.20;4.38;;;17.60;68.80;;;;;;5039763;28;20041;-70
2021/06/02 03:06:54;;;;;;;7.05;4.65;;;17.60;68.70;;;;;;5045400;28;20080;-70
2021/06/02 03:09:41;;;;;;;;;;;17.60;68.90;;;;;;5059384;28;20117;-70
2021/06/02 03:12:34;;;;;;;6.53;4.05;;;17.60;69.90;;;;;;5051045;28;19968;-70
2021/06/02 03:15:10;;;;;;;6.82;3.75;;;17.60;69.10;;;;;;5034814;28;20077;-70
2021/06/02 03:17:47;;;;;;;5.15;3.70;;;17.50;68.80;;;;;;5057145;28;20135;-70
2021/06/02 03:20:57;;;;;;;5.07;3.88;;;17.50;69.00;;;;;;5054656;28;20048;-70
2021/06/02 03:23:51;;;;;;;6.05;4.32;;;17.50;69.50;;;;;;5018597;28;20099;-70
2021/06/02 03:26:21;;;;;;;6.90;4.78;;;17.50;69.10;;;;;;5050228;28;20041;-70
2021/06/02 03:29:10;;;;;;;7.13;4.47;;;17.50;69.30;;;;;;5048519;28;20551;-70
2021/06/02 03:32:07;;;;;;;7.43;4.90;;;17.50;69.80;;;;;;5051325;28;20050;-70
2021/06/02 03:34:42;;;;;;;5.80;4.18;;;17.50;69.60;;;;;;4968374;28;20146;-70
2021/06/02 03:37:47;;;;;;;5.32;3.42;;;17.40;69.60;;;;;;5062835;28;20076;-70
2021/06/02 03:40:44;;;;;;;5.63;3.45;;;17.40;70.40;;;;;;5061395;28;20122;-70
2021/06/02 03:43:23;;;;;;;5.40;3.10;;;17.40;70.40;;;;;;5039132;28;20069;-70
2021/06/02 03:46:16;;;;;;;5.00;3.33;;;17.30;70.40;;;;;;5045269;28;20087;-70
2021/06/02 03:48:43;;;;;;;5.30;3.53;;;17.20;70.50;;;;;;5050116;28;20099;-70
2021/06/02 03:51:41;;;;;;;4.85;3.20;;;17.20;70.50;;;;;;5049692;28;20447;-70
2021/06/02 03:54:45;;;;;;;5.30;3.20;;;17.10;71.10;;;;;;5048602;28;20091;-70
2021/06/02 03:57:38;;;;;;;5.32;3.65;;;17.00;71.30;;;;;;5042749;28;20363;-69
2021/06/02 04:00:04;;;;;;;5.68;3.80;;;16.90;71.10;;;;;;5048223;28;20095;-70
2021/06/02 04:02:31;;;;;;;5.90;4.15;;;16.90;71.50;;;;;;5049290;28;20079;-70
2021/06/02 04:05:13;;;;;;;6.85;4.32;;;16.90;71.70;;;;;;5062151;28;20052;-70
2021/06/02 04:07:40;;;;;;;6.25;4.57;;;17.00;72.10;;;;;;5061196;28;20473;-70
2021/06/02 04:10:12;;;;;;;7.57;4.47;;;17.10;72.30;;;;;;5049893;28;20140;-70
2021/06/02 04:13:00;;;;;;;8.50;4.55;;;17.20;72.90;;;;;;5048185;28;20389;-70
2021/06/02 04:15:29;;;;;;;7.07;4.68;;;17.20;73.10;;;;;;5037820;28;20524;-70
2021/06/02 04:17:57;;;;;;;6.53;4.53;;;17.30;73.30;;;;;;5045579;28;20091;-70
2021/06/02 04:20:24;;;;;;;7.03;4.35;;;17.40;73.60;;;;;;5047625;28;20539;-70
2021/06/02 04:22:53;;;;;;;6.77;4.60;;;17.50;74.00;;;;;;5029901;28;20148;-70
2021/06/02 04:25:20;;;;;;;6.68;4.45;;;17.60;74.20;;;;;;5053840;28;20476;-70
2021/06/02 04:27:48;;;;;;;8.50;5.10;;;17.70;74.50;;;;;;5046679;28;20102;-70
2021/06/02 04:30:17;;;;;;;5.72;4.22;;;17.70;74.70;;;;;;5057232;28;20124;-70
2021/06/02 04:32:46;;;;;;;6.68;4.30;;;17.80;74.80;;;;;;5041514;28;20549;-70
2021/06/02 04:35:17;;;;;;;8.15;5.00;;;17.90;75.10;;;;;;5049700;28;20600;-70
2021/06/02 04:37:45;;;;;;;6.18;4.90;;;17.90;75.40;;;;;;5032788;28;20071;-69
2021/06/02 04:40:13;;;;;;;6.45;4.75;;;18.00;75.80;;;;;;5058982;28;20052;-69
2021/06/02 04:42:41;;;;;;;9.52;4.57;;;18.10;76.10;;;;;;5016484;28;20053;-69
2021/06/02 04:45:23;;;;;;;7.45;4.90;;;18.10;76.20;;;;;;5018810;28;20045;-69
2021/06/02 04:47:51;;;;;;;8.05;4.78;;;18.10;76.50;;;;;;5037019;28;20135;-70
2021/06/02 04:50:22;;;;;;;8.38;4.78;;;18.10;76.60;;;;;;5055472;28;20527;-70
2021/06/02 04:53:26;;;;;;;6.75;4.78;;;18.20;76.80;;;;;;5049762;28;20167;-70
2021/06/02 04:56:24;;;;;;;7.72;4.47;;;18.20;77.40;;;;;;5047698;28;20699;-70
2021/06/02 04:59:02;;;;;;;7.72;4.95;;;18.30;77.40;;;;;;5049707;28;20076;-69
2021/06/02 05:01:45;;;;;;;8.45;5.20;;;18.30;77.50;;;;;;5046627;28;20118;-69
2021/06/02 05:04:42;;;;;;;9.25;4.88;;;18.40;77.90;;;;;;5039701;28;20141;-70
2021/06/02 05:07:12;;;;;;;7.80;5.37;;;18.50;78.30;;;;;;5064037;28;20099;-69
2021/06/02 05:10:16;;;;;;;8.20;5.20;;;18.50;78.10;;;;;;5054735;28;20766;-70
2021/06/02 05:13:08;;;;;;;8.82;5.00;;;18.60;78.80;;;;;;5051203;28;20068;-70
2021/06/02 05:16:23;;;;;;;11.38;5.18;;;18.70;79.00;;;;;;5052053;28;20056;-69
2021/06/02 05:19:23;;;;;;;7.07;5.57;;;18.80;79.20;;;;;;4997422;28;20204;-70
2021/06/02 05:22:38;;;;;;;8.55;5.32;;;18.90;79.30;;;;;;5045490;28;20076;-70
2021/06/02 05:25:38;;;;;;;6.10;4.88;;;19.00;79.70;;;;;;5040021;28;20069;-69
2021/06/02 05:28:46;;;;;;;8.32;5.28;;;19.10;79.90;;;;;;5039880;28;20045;-70
2021/06/02 05:35:02;;;;;;;7.75;5.13;;;19.20;80.50;;;;;;5008466;28;20080;-69
2021/06/02 05:38:00;;;;;;;6.15;4.60;;;19.30;80.40;;;;;;5020440;28;20390;-69
2021/06/02 05:40:41;;;;;;;6.60;4.72;;;19.40;80.90;;;;;;5012348;28;20477;-70
2021/06/02 05:43:45;;;;;;;9.63;5.25;;;19.50;81.00;;;;;;5048060;28;20081;-70
2021/06/02 05:46:57;;;;;;;7.45;4.80;;;19.60;81.20;;;;;;5041212;28;20080;-70
2021/06/02 05:49:42;;;;;;;9.27;5.47;;;19.70;81.70;;;;;;5039854;28;20124;-70
2021/06/02 05:52:37;;;;;;;8.70;5.65;;;19.80;81.60;;;;;;5036807;28;20131;-70
2021/06/02 05:55:41;;;;;;;6.60;4.80;;;19.90;81.90;;;;;;5034306;28;20048;-70
2021/06/02 05:58:35;;;;;;;6.10;4.32;;;20.00;82.00;;;;;;5036164;28;20430;-70
2021/06/02 06:01:28;;;;;;;7.28;4.60;;;20.10;82.20;;;;;;5034837;28;20045;-70
2021/06/02 06:04:21;;;;;;;6.43;4.57;;;20.20;82.50;;;;;;5036046;28;20083;-70
2021/06/02 06:07:00;;;;;;;7.78;4.50;;;20.20;82.60;;;;;;5051771;28;20044;-69
2021/06/02 06:09:54;;;;;;;7.07;5.18;;;20.30;82.80;;;;;;5046631;28;20099;-70
2021/06/02 06:12:46;;;;;;;7.57;4.95;;;20.40;83.00;;;;;;5028153;28;20123;-70
2021/06/02 06:15:47;;;;;;;7.43;5.20;;;20.50;83.00;;;;;;5049164;28;20144;-70
2021/06/02 06:18:23;;;;;;;7.47;4.88;;;20.50;83.00;;;;;;5057921;28;20095;-70
2021/06/02 06:21:02;;;;;;;8.00;5.15;;;20.60;83.20;;;;;;5050005;28;20719;-70
2021/06/02 06:23:53;;;;;;;7.13;5.25;;;20.70;83.30;;;;;;5063660;28;20053;-70
2021/06/02 06:26:46;;;;;;;6.68;5.10;;;20.70;83.30;;;;;;5044667;28;20083;-70
2021/06/02 06:29:31;;;;;;;8.40;5.30;;;20.70;83.20;;;;;;5064445;28;20469;-70
2021/06/02 06:32:00;;;;;;;7.78;4.75;;;20.80;83.50;;;;;;5019857;28;20428;-70
2021/06/02 06:34:32;;;;;;;7.53;5.10;;;20.90;83.60;;;;;;5046098;28;20087;-69
2021/06/02 06:37:01;;;;;;;6.55;4.65;;;20.90;83.70;;;;;;5025552;28;20076;-70
2021/06/02 06:40:07;;;;;;;8.13;4.70;;;21.00;83.80;;;;;;5049499;28;20451;-71
2021/06/02 06:42:40;;;;;;;6.13;4.05;;;21.10;84.40;;;;;;5004561;28;20061;-70
2021/06/02 06:45:09;;;;;;;6.68;4.18;;;21.20;83.90;;;;;;5006554;28;20478;-70
2021/06/02 06:47:38;;;;;;;5.85;4.18;;;21.20;84.00;;;;;;5023551;28;20076;-70
2021/06/02 06:50:09;;;;;;;6.30;4.47;;;21.30;84.10;;;;;;5054813;28;20041;-70
2021/06/02 06:52:38;;;;;;;6.53;4.82;;;21.40;84.10;;;;;;5043313;28;20432;-70
2021/06/02 06:55:07;;;;;;;5.60;4.57;;;21.50;84.20;;;;;;5056898;28;20136;-70
2021/06/02 06:57:38;;;;;;;8.00;6.00;;;21.50;84.20;;;;;;5042686;28;20176;-70
2021/06/02 07:00:08;;;;;;;5.93;4.60;;;21.60;84.10;;;;;;5037282;28;20076;-70
2021/06/02 07:02:43;;;;;;;5.65;4.20;;;21.50;84.00;;;;;;5036747;28;20131;-70
2021/06/02 07:05:11;;;;;;;6.72;5.03;;;21.50;84.00;;;;;;5058874;28;20135;-71
2021/06/02 07:07:43;;;;;;;5.70;4.35;;;21.60;83.80;;;;;;5041810;28;20143;-71
2021/06/02 07:10:13;;;;;;;5.50;3.92;;;21.60;83.80;;;;;;5058086;28;20044;-70
2021/06/02 07:12:42;;;;;;;6.53;3.80;;;21.70;84.00;;;;;;5033253;28;20045;-70
2021/06/02 07:15:11;;;;;;;5.93;4.43;;;21.70;84.00;;;;;;5058014;28;20133;-71
2021/06/02 07:17:39;;;;;;;7.55;4.28;;;21.80;83.50;;;;;;5042360;28;20116;-70
2021/06/02 07:20:10;;;;;;;6.63;3.55;;;21.80;83.50;;;;;;5059145;28;20048;-70
2021/06/02 07:22:44;;;;;;;4.22;3.40;;;21.90;83.70;;;;;;5045843;28;20056;-70
2021/06/02 07:25:16;;;;;;;5.32;3.33;;;22.00;83.90;;;;;;5047679;28;20081;-70
2021/06/02 07:27:45;;;;;;;5.20;3.40;;;22.10;84.00;;;;;;5024620;28;20065;-70
2021/06/02 07:30:13;;;;;;;5.05;3.20;;;22.20;84.00;;;;;;5043893;28;20072;-70
2021/06/02 07:32:41;;;;;;;4.45;2.88;;;22.20;83.80;;;;;;5037405;28;20115;-70
2021/06/02 07:35:08;;;;;;;3.33;2.67;;;22.40;83.80;;;;;;5041449;28;20049;-70
2021/06/02 07:37:36;;;;;;;4.30;2.65;;;22.40;83.50;;;;;;5020064;28;20103;-70
2021/06/02 07:40:04;;;;;;;4.25;3.15;;;22.50;83.30;;;;;;5042904;28;20060;-70
2021/06/02 07:42:31;;;;;;;4.70;2.80;;;22.50;82.30;;;;;;5045530;28;20077;-70
2021/06/02 07:44:58;;;;;;;4.53;2.97;;;22.50;82.30;;;;;;5044624;28;20100;-70
2021/06/02 07:47:25;;;;;;;4.32;2.90;;;22.60;82.40;;;;;;5040827;28;20064;-70
2021/06/02 07:49:55;;;;;;;4.55;2.60;;;22.70;82.70;;;;;;5046998;28;20064;-70
2021/06/02 07:52:22;;;;;;;6.40;2.85;;;22.70;82.70;;;;;;5040417;28;20463;-70
2021/06/02 07:54:48;;;;;;;5.90;3.00;;;22.80;82.60;;;;;;5043638;28;20050;-70
2021/06/02 07:57:15;;;;;;;4.35;3.00;;;22.90;82.70;;;;;;5047577;28;20114;-69
2021/06/02 07:59:42;;;;;;;5.80;2.63;;;22.90;82.60;;;;;;5040504;28;20044;-71
2021/06/02 08:02:08;;;;;;;3.92;2.90;;;23.00;82.90;;;;;;5043269;28;20834;-70
2021/06/02 08:04:35;;;;;;;4.25;2.53;;;23.00;82.90;;;;;;5042351;28;20390;-70
2021/06/02 08:07:05;;;;;;;4.78;2.83;;;23.10;83.30;;;;;;5029988;28;20052;-70
2021/06/02 08:09:32;;;;;;;3.58;2.70;;;23.20;83.20;;;;;;5056669;28;20132;-69
2021/06/02 08:11:59;;;;;;;4.03;2.80;;;23.30;83.40;;;;;;5046029;28;20212;-69
2021/06/02 08:14:26;;;;;;;3.20;2.60;;;23.30;83.80;;;;;;5060493;28;20542;-69
2021/06/02 08:16:52;;;;;;;3.45;2.45;;;23.40;84.00;;;;;;5053503;28;20449;-69
2021/06/02 08:19:19;;;;;;;4.03;2.67;;;23.50;84.10;;;;;;5057147;28;20071;-70
2021/06/02 08:21:46;;;;;;;3.88;2.60;;;23.60;84.10;;;;;;5058163;28;20468;-69
2021/06/02 08:24:13;;;;;;;3.63;2.65;;;23.60;84.00;;;;;;5069933;28;20079;-70
2021/06/02 08:26:41;;;;;;;3.47;2.45;;;23.70;84.10;;;;;;5053732;28;20075;-70
2021/06/02 08:29:08;;;;;;;6.18;3.05;;;23.70;84.00;;;;;;5053624;28;20102;-69
2021/06/02 08:31:35;;;;;;;4.85;2.72;;;23.80;84.20;;;;;;5056958;28;20152;-69
2021/06/02 08:34:02;;;;;;;4.30;2.78;;;23.80;84.30;;;;;;5051703;28;20490;-70
2021/06/02 08:36:31;;;;;;;5.20;2.50;;;23.90;84.50;;;;;;5055890;28;20075;-69
2021/06/02 08:38:57;;;;;;;3.22;2.40;;;23.90;84.60;;;;;;5049639;28;20473;-69
2021/06/02 08:41:24;;;;;;;4.47;2.75;;;24.00;84.60;;;;;;5047289;28;20064;-69
2021/06/02 08:43:51;;;;;;;5.70;2.27;;;24.00;84.40;;;;;;5057860;28;20445;-70
2021/06/02 08:46:19;;;;;;;3.05;2.30;;;24.00;83.80;;;;;;5051558;28;20077;-70
2021/06/02 08:49:05;;;;;;;;;;;24.00;83.60;;;;;;5055499;28;20044;-70
2021/06/02 08:51:35;;;;;;;3.50;2.40;;;24.00;83.50;;;;;;5057533;28;19940;-69
2021/06/02 08:54:03;;;;;;;4.45;2.70;;;24.10;83.90;;;;;;5057492;28;20087;-70
2021/06/02 08:56:29;;;;;;;4.20;2.03;;;24.10;83.80;;;;;;5050077;28;20081;-70
2021/06/02 08:58:56;;;;;;;3.08;2.30;;;24.10;83.80;;;;;;5064780;28;20147;-70
2021/06/02 09:01:28;;;;;;;3.25;2.40;;;24.20;83.60;;;;;;5051372;28;20049;-70
2021/06/02 09:03:57;;;;;;;3.50;2.50;;;24.20;83.10;;;;;;5047010;28;20091;-70
2021/06/02 09:06:24;;;;;;;4.50;2.13;;;24.20;83.10;;;;;;5044083;28;20073;-70
2021/06/02 09:08:52;;;;;;;3.47;2.22;;;24.20;83.50;;;;;;5069773;28;20444;-70
2021/06/02 09:11:21;;;;;;;2.83;2.25;;;24.20;83.60;;;;;;5053664;28;20041;-69
2021/06/02 09:13:48;;;;;;;4.47;2.40;;;24.30;83.30;;;;;;5070495;28;20489;-70
2021/06/02 09:16:22;;;;;;;2.37;2.10;;;24.30;83.40;;;;;;5054652;28;20084;-70
2021/06/02 09:19:02;;;;;;;5.32;2.55;;;24.40;83.40;;;;;;5053109;28;20080;-70
2021/06/02 09:21:30;;;;;;;3.60;2.67;;;24.40;82.30;;;;;;5044395;28;20103;-71
2021/06/02 09:23:57;;;;;;;;;;;24.40;81.60;;;;;;5048746;28;20091;-71
2021/06/02 09:26:30;;;;;;;4.85;2.13;;;24.40;81.20;;;;;;5044793;28;19924;-71
2021/06/02 09:29:11;;;;;;;3.60;2.15;;;24.30;80.50;;;;;;5042619;28;20102;-70
2021/06/02 09:31:39;;;;;;;4.72;2.03;;;24.30;80.20;;;;;;5055405;28;20128;-70
2021/06/02 09:34:17;;;;;;;2.53;1.67;;;24.30;80.60;;;;;;5062997;28;20048;-71
2021/06/02 09:36:47;;;;;;;7.45;1.90;;;24.40;80.70;;;;;;5050090;28;20077;-70
2021/06/02 09:39:16;;;;;;;1.70;1.30;;;24.40;80.00;;;;;;5035356;28;20077;-70
2021/06/02 09:41:48;;;;;;;3.85;1.35;;;24.50;79.40;;;;;;5053153;28;20535;-69
2021/06/02 09:44:22;;;;;;;2.83;1.90;;;24.50;79.00;;;;;;5041617;28;20067;-71
2021/06/02 09:46:59;;;;;;;2.00;1.50;;;24.50;77.10;;;;;;5037814;28;20541;-70
2021/06/02 09:49:29;;;;;;;2.65;1.63;;;24.60;77.10;;;;;;5061606;28;20440;-70
2021/06/02 09:51:56;;;;;;;2.85;1.73;;;24.60;76.90;;;;;;5050652;28;20076;-71
2021/06/02 09:54:24;;;;;;;1.80;1.30;;;24.60;76.20;;;;;;5057542;28;20085;-71
2021/06/02 09:56:51;;;;;;;2.22;1.38;;;24.60;76.50;;;;;;5052807;28;20049;-70
2021/06/02 09:59:19;;;;;;;2.75;1.38;;;24.70;75.20;;;;;;5050832;28;20052;-70
2021/06/02 10:02:00;;;;;;;1.92;1.30;;;24.70;74.30;;;;;;5037631;28;20081;-70
2021/06/02 10:04:35;;;;;;;2.83;1.85;;;24.80;74.20;;;;;;5058091;28;20084;-71
2021/06/02 10:07:03;;;;;;;2.53;1.50;;;24.80;74.10;;;;;;5046329;28;20049;-70
2021/06/02 10:09:33;;;;;;;1.83;1.50;;;24.80;74.10;;;;;;5052650;28;20459;-70
2021/06/02 10:12:03;;;;;;;2.22;1.35;;;24.90;73.40;;;;;;5038299;28;20053;-70
2021/06/02 10:14:31;;;;;;;2.22;1.60;;;25.00;72.30;;;;;;5060873;28;20517;-70
2021/06/02 10:16:58;;;;;;;3.90;1.33;;;25.00;72.70;;;;;;5050164;28;20150;-70
2021/06/02 10:19:43;;;;;;;2.50;1.48;;;25.00;72.90;;;;;;5043621;28;20066;-70
2021/06/02 10:22:26;;;;;;;2.05;1.70;;;25.00;69.90;;;;;;5047472;28;20445;-70
2021/06/02 10:25:01;;;;;;;2.72;1.40;;;25.00;70.90;;;;;;5040909;28;20463;-70
2021/06/02 10:27:28;;;;;;;3.10;1.50;;;25.00;71.40;;;;;;5044550;28;20077;-71
2021/06/02 10:29:56;;;;;;;1.67;1.33;;;25.10;71.80;;;;;;5044959;28;20136;-70
2021/06/02 10:32:23;;;;;;;;;;;25.10;71.50;;;;;;5043995;28;20442;-70
2021/06/02 10:34:52;;;;;;;1.90;1.40;;;25.20;71.90;;;;;;5076330;28;19931;-70
2021/06/02 10:37:21;;;;;;;3.75;1.60;;;25.20;72.30;;;;;;5045203;28;20455;-69
2021/06/02 10:40:10;;;;;;;1.95;1.48;;;25.30;72.40;;;;;;5061767;28;20045;-70
2021/06/02 10:43:03;;;;;;;1.65;1.20;;;25.30;71.10;;;;;;5049488;28;20076;-70
2021/06/02 10:45:33;;;;;;;2.38;1.65;;;25.40;71.60;;;;;;5053261;28;20136;-70
2021/06/02 10:48:04;;;;;;;3.60;1.95;;;25.40;70.20;;;;;;5042156;28;20100;-70
2021/06/02 10:50:40;;;;;;;3.72;2.25;;;25.40;70.40;;;;;;5047381;28;20084;-70
2021/06/02 10:53:20;;;;;;;5.03;2.50;;;25.40;70.10;;;;;;5040445;28;20120;-71
2021/06/02 10:55:54;;;;;;;2.55;1.65;;;25.50;68.10;;;;;;5050061;28;20057;-70
2021/06/02 10:58:47;;;;;;;3.28;1.80;;;25.50;69.60;;;;;;5054686;28;20197;-71
2021/06/02 11:01:17;;;;;;;2.30;1.67;;;25.50;68.20;;;;;;5047531;28;20453;-71
2021/06/02 11:03:48;;;;;;;3.53;1.50;;;25.60;67.80;;;;;;5062685;28;20076;-71
2021/06/02 11:06:14;;;;;;;3.42;1.80;;;25.50;66.80;;;;;;5057914;28;20094;-70
2021/06/02 11:08:47;;;;;;;2.70;1.67;;;25.50;68.00;;;;;;5058316;28;20090;-71
2021/06/02 11:11:35;;;;;;;2.22;1.38;;;25.50;67.90;;;;;;5059124;28;20087;-70
2021/06/02 11:16:41;;;;;;;3.63;2.17;;;25.60;68.70;;;;;;5055706;28;20472;-71
2021/06/02 11:19:11;;;;;;;3.35;1.90;;;25.70;68.10;;;;;;5046041;28;20072;-70
2021/06/02 11:21:58;;;;;;;4.03;1.90;;;25.70;68.00;;;;;;5035088;28;20073;-71
2021/06/02 11:24:31;;;;;;;2.90;1.63;;;25.70;68.30;;;;;;5046119;28;20072;-70
2021/06/02 11:27:13;;;;;;;1.95;1.75;;;25.80;68.40;;;;;;5051245;28;20807;-70
2021/06/02 11:29:52;;;;;;;2.40;1.55;;;25.90;67.90;;;;;;5050036;28;20083;-70
2021/06/02 11:32:23;;;;;;;3.55;1.52;;;25.90;68.30;;;;;;5028337;28;20072;-71
2021/06/02 11:35:05;;;;;;;1.50;1.20;;;25.90;68.90;;;;;;5033313;28;20130;-70
2021/06/02 11:37:36;;;;;;;2.25;1.40;;;26.00;68.80;;;;;;5032755;28;20079;-71
2021/06/02 11:40:09;;;;;;;1.83;1.50;;;26.10;69.00;;;;;;5036369;28;20469;-70
2021/06/02 11:42:42;;;;;;;3.05;1.58;;;26.10;68.80;;;;;;5033320;28;20132;-70
2021/06/02 11:45:14;;;;;;;2.03;1.38;;;26.20;68.40;;;;;;5033355;28;20176;-69
2021/06/02 11:47:52;;;;;;;3.28;1.50;;;26.20;68.10;;;;;;5033651;28;20809;-70
2021/06/02 11:50:22;;;;;;;1.73;1.27;;;26.20;68.00;;;;;;5034823;28;20489;-69
2021/06/02 11:52:57;;;;;;;1.98;1.60;;;26.20;67.30;;;;;;5037107;28;20103;-70
2021/06/02 11:55:24;;;;;;;3.72;1.65;;;26.30;66.10;;;;;;5038609;28;20069;-71
2021/06/02 11:57:52;;;;;;;3.22;2.00;;;26.30;66.40;;;;;;5035643;28;20088;-70
2021/06/02 12:00:22;;;;;;;;;;;26.20;65.70;;;;;;5036302;28;20049;-70
2021/06/02 12:02:55;;;;;;;3.17;1.23;;;26.20;65.90;;;;;;5033792;28;20019;-70
2021/06/02 12:05:25;;;;;;;3.33;1.38;;;26.30;66.30;;;;;;5037398;28;20076;-70
2021/06/02 12:07:56;;;;;;;2.65;1.60;;;26.30;66.20;;;;;;5037095;28;20076;-70
2021/06/02 12:10:25;;;;;;;2.72;1.60;;;26.30;66.00;;;;;;5038517;28;20436;-70
2021/06/02 12:12:52;;;;;;;2.13;1.40;;;26.30;66.00;;;;;;5035648;28;20135;-70
2021/06/02 12:15:20;;;;;;;2.70;1.90;;;26.30;66.30;;;;;;5039325;28;20125;-70
2021/06/02 12:17:49;;;;;;;4.55;1.70;;;26.40;66.40;;;;;;5051079;28;20111;-70
2021/06/02 12:20:22;;;;;;;5.55;2.00;;;26.40;66.20;;;;;;5041002;28;20049;-70
2021/06/02 12:22:50;;;;;;;2.17;1.52;;;26.30;66.20;;;;;;5052194;28;20125;-70
2021/06/02 12:25:22;;;;;;;2.53;1.80;;;26.40;66.70;;;;;;5056008;28;20053;-70
2021/06/02 12:27:55;;;;;;;3.08;1.75;;;26.40;66.00;;;;;;5060988;28;20081;-71
2021/06/02 12:30:26;;;;;;;3.88;1.95;;;26.40;66.20;;;;;;5048268;28;20087;-71
2021/06/02 12:33:10;;;;;;;2.67;1.92;;;26.50;66.60;;;;;;5053246;28;20132;-70
2021/06/02 12:35:47;;;;;;;2.33;1.55;;;26.50;66.10;;;;;;5050338;28;20132;-71
2021/06/02 12:38:16;;;;;;;1.50;1.40;;;26.50;66.00;;;;;;5057068;28;20132;-70
2021/06/02 12:40:47;;;;;;;2.55;1.60;;;26.50;65.80;;;;;;5036362;28;20515;-71
2021/06/02 12:43:26;;;;;;;2.35;1.60;;;26.60;65.30;;;;;;5065929;28;20040;-70
2021/06/02 12:46:06;;;;;;;3.72;1.52;;;26.60;65.00;;;;;;5060776;28;20060;-70
2021/06/02 12:48:34;;;;;;;1.60;1.40;;;26.60;64.40;;;;;;5031479;28;20063;-70
2021/06/02 12:51:02;;;;;;;3.17;1.50;;;26.70;63.60;;;;;;5044059;28;20044;-70
2021/06/02 12:53:41;;;;;;;4.20;1.60;;;26.70;63.20;;;;;;5056117;28;20067;-70
2021/06/02 12:56:09;;;;;;;1.83;1.30;;;26.70;62.50;;;;;;5054613;28;20085;-70
2021/06/02 12:58:37;;;;;;;1.67;1.30;;;26.70;62.70;;;;;;5062674;28;20080;-70
2021/06/02 13:01:10;;;;;;;3.72;1.88;;;26.70;63.00;;;;;;5052986;28;20083;-71
2021/06/02 13:03:43;;;;;;;2.83;1.52;;;26.70;63.60;;;;;;5042715;28;20492;-70
2021/06/02 13:06:18;;;;;;;2.45;1.40;;;26.80;63.70;;;;;;5049188;28;20076;-70
2021/06/02 13:08:46;;;;;;;1.90;1.20;;;26.80;63.00;;;;;;5059875;28;20041;-70
2021/06/02 13:11:17;;;;;;;3.25;1.70;;;26.90;63.30;;;;;;5045803;28;20124;-70
2021/06/02 13:13:49;;;;;;;1.42;1.25;;;26.90;63.30;;;;;;5057370;28;20084;-70
2021/06/02 13:16:17;;;;;;;2.42;1.23;;;27.00;62.90;;;;;;5050769;28;20077;-71
2021/06/02 13:18:55;;;;;;;1.58;1.27;;;27.00;62.80;;;;;;5048952;28;20049;-71
2021/06/02 13:21:30;;;;;;;3.17;1.50;;;27.00;62.20;;;;;;5053586;28;20088;-71
2021/06/02 13:24:12;;;;;;;3.60;1.60;;;27.00;60.10;;;;;;5053008;28;20143;-71
2021/06/02 13:26:43;;;;;;;3.75;1.70;;;27.00;60.60;;;;;;5047462;28;20080;-70
2021/06/02 13:29:11;;;;;;;2.90;1.52;;;27.00;61.00;;;;;;5067412;28;20150;-70
2021/06/02 13:31:45;;;;;;;2.08;1.48;;;27.00;60.40;;;;;;5050565;28;20076;-71
2021/06/02 13:34:38;;;;;;;2.22;1.40;;;27.00;60.40;;;;;;5074815;28;20395;-70
2021/06/02 13:37:23;;;;;;;2.05;1.70;;;27.10;61.10;;;;;;5052489;28;20057;-71
2021/06/02 13:40:14;;;;;;;1.90;1.27;;;27.10;61.10;;;;;;5064276;28;20057;-70
2021/06/02 13:43:02;;;;;;;3.45;1.40;;;27.20;61.40;;;;;;5056750;28;20048;-71